Terminal Aerodrome Forecast
Issued by NWS Melbourne, FL

Home | Current Version | Previous Version | Text Only | Print | Product List | Glossary On
Versions: 1 2 3 4 5 6 7 8 9 10 11 12 13
000
FTUS42 KMLB 030537
TAFMLB
TAF
KMLB 030537Z 0306/0406 18006KT P6SM BKN250
     FM031400 20011KT P6SM SCT030 SCT120 BKN250
     FM031700 21012G18KT P6SM VCTS SCT030CB BKN060
      TEMPO 0319/0322 3SM TSRA BKN020CB OVC040
     FM032200 23010KT P6SM SCT040 OVC080
      TEMPO 0322/0324 5SM -SHRA BKN030
     FM040100 22004KT P6SM FEW040 BKN120 OVC250=

USA.gov is the U.S. government's official web portal to all federal, state and local government web resources and services.